Rose Hill, Kansas
Current Conditions -  °F | °C
As of 5:58 AM on Thursday 29 Jan 2015 (Local Time) from KIAB Reporting Station
Few Clouds Few Clouds  
Wind Chill: 31°   Ceiling: Unl
Heat Index: 42°   Visibility: 10mi
Dew Point: 32°   Wind: 31mph
Humidity: 68%   Direction: 10°N
Pressure: 30.21"   Gusts: 41mph
Location:  37.56°N, 97.14°W
Report Text: KIAB 291158Z AUTO 01027G36KT 10SM FEW026 05/00 A3021 RMK AO2 PK WND 34038/41 SLP234 T00541001 10139 20054 52033
Loading
Personal Weather Stations






























Interactive Weather Map New forecast layout! Learn more

10-Day Weather Forecast

Advertisements
Track Severe Weather on mobile